createdAt,value
2023-04-06T00:00:06.283Z,2.40
2023-04-06T00:01:06.258Z,2.45
2023-04-06T00:02:06.268Z,2.13
2023-04-06T00:03:06.369Z,2.06
2023-04-06T00:04:06.325Z,2.31
2023-04-06T00:05:06.245Z,2.13
2023-04-06T00:06:06.224Z,2.18
2023-04-06T00:07:06.241Z,2.43
2023-04-06T00:08:06.211Z,2.53
2023-04-06T00:09:06.421Z,2.29
2023-04-06T00:10:06.208Z,2.57
2023-04-06T00:11:06.186Z,2.11
2023-04-06T00:12:06.182Z,2.56
2023-04-06T00:13:06.167Z,2.14
2023-04-06T00:14:06.176Z,2.23
2023-04-06T00:15:06.174Z,2.38
2023-04-06T00:16:06.209Z,2.03
2023-04-06T00:17:06.234Z,2.23
2023-04-06T00:18:06.245Z,2.42
2023-04-06T00:19:06.252Z,2.56
2023-04-06T00:20:06.135Z,2.30
2023-04-06T00:21:06.110Z,2.43
2023-04-06T00:22:06.186Z,2.50
2023-04-06T00:23:06.129Z,2.19
2023-04-06T00:24:06.101Z,2.11
2023-04-06T00:25:06.078Z,2.15
2023-04-06T00:26:06.073Z,2.02
2023-04-06T00:27:06.072Z,2.32
2023-04-06T00:28:06.064Z,2.16
2023-04-06T00:29:06.157Z,2.08
2023-04-06T00:30:06.057Z,2.58
2023-04-06T00:31:06.048Z,2.49
2023-04-06T00:32:06.096Z,2.89
2023-04-06T00:33:06.062Z,2.35
2023-04-06T00:34:06.020Z,2.19
2023-04-06T00:35:06.027Z,1.79
2023-04-06T00:36:06.048Z,2.38
2023-04-06T00:37:06.017Z,2.61
2023-04-06T00:38:06.010Z,2.29
2023-04-06T00:39:06.124Z,2.24
2023-04-06T00:40:05.973Z,2.16
2023-04-06T00:41:05.975Z,2.41
2023-04-06T00:42:05.976Z,2.10
2023-04-06T00:43:05.984Z,2.35
2023-04-06T00:44:06.002Z,2.16
2023-04-06T00:45:06.025Z,2.38
2023-04-06T00:46:06.180Z,2.92
2023-04-06T00:47:06.094Z,2.11
2023-04-06T00:48:06.143Z,2.32
2023-04-06T00:49:06.327Z,2.35
2023-04-06T00:50:06.160Z,1.91
2023-04-06T00:51:06.169Z,2.27
2023-04-06T00:52:06.164Z,2.06
2023-04-06T00:53:06.191Z,2.18
2023-04-06T00:54:06.214Z,2.13
2023-04-06T00:55:06.230Z,2.32
2023-04-06T00:56:06.247Z,2.72
2023-04-06T00:57:06.252Z,2.30
2023-04-06T00:58:06.274Z,2.19
2023-04-06T00:59:06.489Z,1.93
2023-04-06T01:00:06.354Z,2.40
2023-04-06T01:01:06.375Z,1.98
2023-04-06T01:02:06.381Z,2.22
2023-04-06T01:03:06.399Z,2.37
2023-04-06T01:04:06.418Z,2.28
2023-04-06T01:05:06.458Z,2.13
2023-04-06T01:06:06.440Z,2.04
2023-04-06T01:07:06.465Z,1.96
2023-04-06T01:08:06.494Z,2.10
2023-04-06T01:09:06.873Z,1.70
2023-04-06T01:10:06.515Z,2.17
2023-04-06T01:11:06.534Z,2.04
2023-04-06T01:12:06.564Z,2.00
2023-04-06T01:13:06.580Z,1.98
2023-04-06T01:14:06.600Z,2.00
2023-04-06T01:15:06.632Z,2.11
2023-04-06T01:16:06.692Z,2.02
2023-04-06T01:17:06.660Z,2.24
2023-04-06T01:18:06.709Z,1.54
2023-04-06T01:19:07.088Z,2.30
2023-04-06T01:20:06.734Z,1.92
2023-04-06T01:21:06.809Z,1.62
2023-04-06T01:22:06.777Z,1.91
2023-04-06T01:23:06.794Z,2.06
2023-04-06T01:24:06.809Z,2.64
2023-04-06T01:25:06.840Z,2.36
2023-04-06T01:26:06.872Z,2.21
2023-04-06T01:27:06.881Z,2.09
2023-04-06T01:28:06.907Z,2.00
2023-04-06T01:29:07.108Z,2.00
2023-04-06T01:30:06.950Z,2.13
2023-04-06T01:31:06.989Z,2.17
2023-04-06T01:32:06.996Z,1.99
2023-04-06T01:33:07.048Z,2.12
2023-04-06T01:34:07.037Z,2.22
2023-04-06T01:35:07.050Z,2.18
2023-04-06T01:36:07.084Z,1.79
2023-04-06T01:37:07.115Z,1.85
2023-04-06T01:38:07.115Z,2.17
2023-04-06T01:39:07.266Z,2.19
2023-04-06T01:40:07.164Z,1.97
2023-04-06T01:41:07.164Z,2.06
2023-04-06T01:42:07.184Z,2.21
2023-04-06T01:43:07.259Z,2.17
2023-04-06T01:44:07.233Z,2.32
2023-04-06T01:45:07.225Z,1.55
2023-04-06T01:46:07.287Z,2.11
2023-04-06T01:47:07.261Z,2.07
2023-04-06T01:48:07.272Z,1.81
2023-04-06T01:49:07.515Z,2.05
2023-04-06T01:50:07.343Z,1.96
2023-04-06T01:51:07.339Z,1.90
2023-04-06T01:52:07.369Z,2.14
2023-04-06T01:53:07.369Z,1.84
2023-04-06T01:54:07.405Z,1.79
2023-04-06T01:55:07.414Z,2.04
2023-04-06T01:56:07.436Z,2.23
2023-04-06T01:57:07.438Z,2.21
2023-04-06T01:58:07.474Z,1.87
2023-04-06T01:59:07.742Z,1.82
2023-04-06T02:00:07.527Z,2.61
2023-04-06T02:01:07.633Z,2.02
2023-04-06T02:02:07.562Z,2.04
2023-04-06T02:03:07.611Z,2.26
2023-04-06T02:04:07.563Z,1.72
2023-04-06T02:05:07.575Z,2.43
2023-04-06T02:06:07.596Z,1.75
2023-04-06T02:07:07.629Z,2.33
2023-04-06T02:08:07.625Z,1.73
2023-04-06T02:09:08.065Z,1.96
2023-04-06T02:10:07.719Z,1.83
2023-04-06T02:11:07.705Z,2.20
2023-04-06T02:12:07.732Z,2.09
2023-04-06T02:13:07.745Z,1.80
2023-04-06T02:14:07.776Z,1.92
2023-04-06T02:15:07.790Z,1.62
2023-04-06T02:16:07.811Z,2.35
2023-04-06T02:17:07.819Z,2.06
2023-04-06T02:18:07.860Z,1.94
2023-04-06T02:19:07.962Z,1.77
2023-04-06T02:20:07.893Z,2.22
2023-04-06T02:21:07.906Z,1.70
2023-04-06T02:22:07.913Z,1.50
2023-04-06T02:23:07.927Z,2.38
2023-04-06T02:24:07.941Z,2.11
2023-04-06T02:25:07.973Z,2.03
2023-04-06T02:26:07.961Z,2.02
2023-04-06T02:27:08.025Z,2.09
2023-04-06T02:28:08.007Z,2.07
2023-04-06T02:29:08.251Z,2.19
2023-04-06T02:30:08.034Z,1.70
2023-04-06T02:31:08.062Z,2.14
2023-04-06T02:32:08.136Z,1.60
2023-04-06T02:33:08.118Z,2.02
2023-04-06T02:34:08.109Z,2.06
2023-04-06T02:35:08.177Z,2.37
2023-04-06T02:36:08.254Z,2.07
2023-04-06T02:37:08.195Z,1.88
2023-04-06T02:38:08.219Z,2.16
2023-04-06T02:39:08.335Z,2.06
2023-04-06T02:40:08.277Z,1.86
2023-04-06T02:41:08.273Z,1.86
2023-04-06T02:42:08.298Z,1.87
2023-04-06T02:43:08.340Z,1.81
2023-04-06T02:44:08.344Z,1.99
2023-04-06T02:45:08.377Z,1.99
2023-04-06T02:46:08.451Z,1.89
2023-04-06T02:47:08.400Z,2.16
2023-04-06T02:48:08.429Z,2.05
2023-04-06T02:49:08.584Z,1.99
2023-04-06T02:50:08.476Z,2.10
2023-04-06T02:51:08.495Z,2.00
2023-04-06T02:52:08.502Z,2.27
2023-04-06T02:53:08.522Z,2.24
2023-04-06T02:54:08.543Z,1.94
2023-04-06T02:55:08.589Z,2.13
2023-04-06T02:56:08.597Z,2.18
2023-04-06T02:57:08.605Z,1.94
2023-04-06T02:58:08.629Z,1.73
2023-04-06T02:59:08.841Z,1.71
2023-04-06T03:00:08.653Z,1.65
2023-04-06T03:01:08.690Z,1.99
2023-04-06T03:02:08.702Z,2.03
2023-04-06T03:03:08.828Z,1.95
2023-04-06T03:04:08.740Z,1.87
2023-04-06T03:05:08.766Z,1.91
2023-04-06T03:06:08.770Z,2.01
2023-04-06T03:07:08.776Z,1.80
2023-04-06T03:08:08.802Z,1.71
2023-04-06T03:09:08.983Z,2.05
2023-04-06T03:10:08.917Z,1.90
2023-04-06T03:11:08.912Z,1.90
2023-04-06T03:12:10.166Z,1.78
2023-04-06T03:13:08.942Z,2.43
2023-04-06T03:14:08.949Z,1.69
2023-04-06T03:15:08.985Z,1.78
2023-04-06T03:16:09.042Z,1.65
2023-04-06T03:17:09.028Z,1.76
2023-04-06T03:18:09.111Z,1.59
2023-04-06T03:19:09.404Z,1.68
2023-04-06T03:20:09.074Z,1.96
2023-04-06T03:21:09.110Z,1.76
2023-04-06T03:22:09.130Z,1.88
2023-04-06T03:23:09.148Z,2.25
2023-04-06T03:24:09.165Z,2.46
2023-04-06T03:25:09.215Z,1.70
2023-04-06T03:26:09.213Z,2.09
2023-04-06T03:27:09.235Z,1.99
2023-04-06T03:28:09.253Z,1.47
2023-04-06T03:29:09.502Z,2.01
2023-04-06T03:30:09.309Z,1.73
2023-04-06T03:31:09.375Z,1.81
2023-04-06T03:32:10.608Z,1.93
2023-04-06T03:33:09.429Z,1.77
2023-04-06T03:34:09.533Z,1.50
2023-04-06T03:35:09.493Z,1.83
2023-04-06T03:36:09.529Z,1.88
2023-04-06T03:37:10.784Z,1.58
2023-04-06T03:38:09.583Z,2.02
2023-04-06T03:39:09.615Z,1.48
2023-04-06T03:40:09.570Z,1.78
2023-04-06T03:41:09.543Z,2.23
2023-04-06T03:42:09.580Z,1.92
2023-04-06T03:43:09.645Z,1.62
2023-04-06T03:44:09.606Z,1.84
2023-04-06T03:45:09.606Z,1.86
2023-04-06T03:46:09.659Z,1.51
2023-04-06T03:47:09.667Z,2.00
2023-04-06T03:48:09.783Z,1.88
2023-04-06T03:49:09.901Z,1.68
2023-04-06T03:50:09.724Z,2.20
2023-04-06T03:51:09.737Z,1.79
2023-04-06T03:52:09.758Z,1.64
2023-04-06T03:53:09.767Z,1.69
2023-04-06T03:54:09.797Z,1.93
2023-04-06T03:55:09.803Z,2.09
2023-04-06T03:56:09.819Z,1.64
2023-04-06T03:57:09.834Z,1.68
2023-04-06T03:58:09.855Z,1.62
2023-04-06T03:59:10.262Z,1.73
2023-04-06T04:00:09.917Z,1.89
2023-04-06T04:01:09.941Z,1.82
2023-04-06T04:02:09.992Z,1.81
2023-04-06T04:03:10.085Z,2.00
2023-04-06T04:04:09.994Z,1.77
2023-04-06T04:05:10.104Z,2.08
2023-04-06T04:06:10.041Z,1.94
2023-04-06T04:07:10.044Z,1.79
2023-04-06T04:08:10.073Z,1.73
2023-04-06T04:09:10.327Z,1.39
2023-04-06T04:10:10.129Z,1.95
2023-04-06T04:11:10.147Z,1.64
2023-04-06T04:12:10.173Z,2.06
2023-04-06T04:13:10.181Z,1.95
2023-04-06T04:14:10.183Z,1.76
2023-04-06T04:15:10.216Z,1.66
2023-04-06T04:16:10.272Z,1.91
2023-04-06T04:17:10.301Z,1.86
2023-04-06T04:18:10.329Z,1.70
2023-04-06T04:19:10.489Z,1.70
2023-04-06T04:20:10.330Z,1.87
2023-04-06T04:21:10.366Z,1.60
2023-04-06T04:22:10.389Z,1.81
2023-04-06T04:23:10.395Z,1.77
2023-04-06T04:24:10.427Z,1.63
2023-04-06T04:25:10.448Z,1.96
2023-04-06T04:26:10.481Z,1.89
2023-04-06T04:27:10.497Z,1.82
2023-04-06T04:28:10.507Z,1.76
2023-04-06T04:29:10.799Z,1.68
2023-04-06T04:30:10.557Z,1.91
2023-04-06T04:31:10.575Z,1.28
2023-04-06T04:32:10.658Z,1.59
2023-04-06T04:33:10.619Z,1.86
2023-04-06T04:34:10.640Z,1.77
2023-04-06T04:35:10.727Z,1.37
2023-04-06T04:36:10.703Z,2.12
2023-04-06T04:37:10.730Z,1.90
2023-04-06T04:38:10.747Z,1.57
2023-04-06T04:39:10.814Z,1.92
2023-04-06T04:40:10.792Z,2.03
2023-04-06T04:41:10.808Z,1.85
2023-04-06T04:42:10.844Z,1.55
2023-04-06T04:43:10.863Z,1.70
2023-04-06T04:44:10.887Z,1.97
2023-04-06T04:45:10.960Z,1.74
2023-04-06T04:46:10.926Z,1.85
2023-04-06T04:47:10.956Z,2.06
2023-04-06T04:48:11.025Z,1.95
2023-04-06T04:49:11.064Z,1.59
2023-04-06T04:50:11.033Z,1.51
2023-04-06T04:51:11.062Z,1.70
2023-04-06T04:52:11.076Z,1.75
2023-04-06T04:53:11.093Z,2.16
2023-04-06T04:54:11.140Z,2.01
2023-04-06T04:55:11.161Z,1.66
2023-04-06T04:56:11.183Z,1.47
2023-04-06T04:57:11.209Z,1.68
2023-04-06T04:58:11.233Z,1.59
2023-04-06T04:59:11.501Z,1.53
2023-04-06T05:00:11.272Z,1.69
2023-04-06T05:01:11.354Z,1.48
2023-04-06T05:02:11.414Z,1.55
2023-04-06T05:03:11.419Z,2.27
2023-04-06T05:04:11.383Z,1.73
2023-04-06T05:05:11.409Z,1.94
2023-04-06T05:06:13.238Z,1.66
2023-04-06T05:07:11.469Z,1.96
2023-04-06T05:08:11.482Z,1.88
2023-04-06T05:09:11.529Z,1.98
2023-04-06T05:10:11.525Z,1.70
2023-04-06T05:11:11.569Z,1.69
2023-04-06T05:12:11.585Z,2.15
2023-04-06T05:13:11.611Z,1.83
2023-04-06T05:14:11.615Z,1.49
2023-04-06T05:15:11.640Z,1.70
2023-04-06T05:16:11.688Z,2.00
2023-04-06T05:17:11.692Z,1.52
2023-04-06T05:18:11.885Z,1.84
2023-04-06T05:19:11.713Z,2.04
2023-04-06T05:20:11.734Z,2.14
2023-04-06T05:21:11.780Z,1.77
2023-04-06T05:22:11.786Z,1.96
2023-04-06T05:23:11.804Z,1.85
2023-04-06T05:24:11.824Z,2.01
2023-04-06T05:25:11.874Z,1.54
2023-04-06T05:26:11.876Z,2.01
2023-04-06T05:27:11.908Z,1.59
2023-04-06T05:28:11.933Z,2.20
2023-04-06T05:29:11.957Z,1.85
2023-04-06T05:30:11.978Z,1.50
2023-04-06T05:31:12.007Z,1.71
2023-04-06T05:32:12.010Z,2.07
2023-04-06T05:33:12.054Z,1.96
2023-04-06T05:34:12.078Z,1.46
2023-04-06T05:35:12.092Z,2.23
2023-04-06T05:36:14.902Z,1.51
2023-04-06T05:37:12.083Z,1.66
2023-04-06T05:38:12.099Z,1.83
2023-04-06T05:39:12.073Z,1.79
2023-04-06T05:40:12.081Z,1.87
2023-04-06T05:41:12.065Z,1.73
2023-04-06T05:42:12.061Z,1.60
2023-04-06T05:43:12.056Z,1.68
2023-04-06T05:44:12.039Z,1.44
2023-04-06T05:45:12.052Z,2.03
2023-04-06T05:46:12.061Z,1.47
2023-04-06T05:47:12.025Z,1.78
2023-04-06T05:48:12.079Z,2.15
2023-04-06T05:49:12.266Z,1.78
2023-04-06T05:50:11.985Z,1.69
2023-04-06T05:51:11.989Z,2.06
2023-04-06T05:52:11.981Z,1.68
2023-04-06T05:53:11.974Z,1.97
2023-04-06T05:54:11.973Z,2.17
2023-04-06T05:55:11.960Z,1.75
2023-04-06T05:56:11.958Z,2.19
2023-04-06T05:57:11.925Z,2.34
2023-04-06T05:58:11.927Z,1.99
2023-04-06T05:59:11.993Z,2.44
2023-04-06T06:00:11.913Z,2.24
2023-04-06T06:01:11.920Z,2.08
2023-04-06T06:02:11.961Z,2.29
2023-04-06T06:03:11.911Z,2.37
2023-04-06T06:04:11.888Z,2.50
2023-04-06T06:05:11.969Z,2.57
2023-04-06T06:06:11.882Z,2.58
2023-04-06T06:07:11.858Z,2.33
2023-04-06T06:08:11.865Z,2.64
2023-04-06T06:09:11.841Z,2.23
2023-04-06T06:10:11.840Z,2.64
2023-04-06T06:11:11.847Z,2.34
2023-04-06T06:12:14.479Z,1.93
2023-04-06T06:13:11.823Z,2.47
2023-04-06T06:14:11.822Z,2.34
2023-04-06T06:15:11.799Z,2.67
2023-04-06T06:16:11.822Z,2.36
2023-04-06T06:17:11.804Z,2.82
2023-04-06T06:18:11.835Z,2.80
2023-04-06T06:19:11.800Z,2.80
2023-04-06T06:20:11.784Z,2.86
2023-04-06T06:21:11.757Z,2.79
2023-04-06T06:22:11.766Z,2.65
2023-04-06T06:23:11.756Z,2.13
2023-04-06T06:24:11.757Z,3.10
2023-04-06T06:25:11.730Z,2.30
2023-04-06T06:26:11.796Z,2.13
2023-04-06T06:27:11.722Z,2.05
2023-04-06T06:28:12.009Z,2.45
2023-04-06T06:29:11.719Z,2.12
2023-04-06T06:30:11.695Z,2.26
2023-04-06T06:31:11.734Z,2.50
2023-04-06T06:32:11.789Z,2.99
2023-04-06T06:33:11.679Z,2.59
2023-04-06T06:34:11.669Z,2.31
2023-04-06T06:35:11.676Z,2.51
2023-04-06T06:36:11.671Z,2.44
2023-04-06T06:37:11.658Z,2.29
2023-04-06T06:38:11.654Z,2.55
2023-04-06T06:39:11.748Z,2.41
2023-04-06T06:40:11.677Z,2.96
2023-04-06T06:41:11.627Z,2.60
2023-04-06T06:42:13.462Z,2.82
2023-04-06T06:43:11.625Z,2.72
2023-04-06T06:44:12.036Z,2.23
2023-04-06T06:45:11.970Z,2.65
2023-04-06T06:46:11.625Z,2.80
2023-04-06T06:47:11.602Z,2.11
2023-04-06T06:48:11.605Z,2.91
2023-04-06T06:49:11.582Z,2.58
2023-04-06T06:50:11.584Z,2.82
2023-04-06T06:51:11.575Z,2.37
2023-04-06T06:52:11.571Z,2.48
2023-04-06T06:53:11.552Z,2.32
2023-04-06T06:54:11.830Z,2.92
2023-04-06T06:55:11.526Z,2.59
2023-04-06T06:56:11.529Z,2.28
2023-04-06T06:57:11.510Z,2.37
2023-04-06T06:58:11.515Z,2.47
2023-04-06T06:59:11.545Z,2.50
2023-04-06T07:00:13.151Z,2.07
2023-04-06T07:01:11.514Z,2.75
2023-04-06T07:02:11.506Z,2.59
2023-04-06T07:03:11.504Z,2.48
2023-04-06T07:04:11.802Z,2.51
2023-04-06T07:05:26.195Z,2.47
2023-04-06T07:06:12.474Z,1.88
2023-04-06T07:07:11.464Z,2.53
2023-04-06T07:08:11.459Z,2.40
2023-04-06T07:09:11.441Z,2.58
2023-04-06T07:10:11.439Z,2.28
2023-04-06T07:11:11.420Z,2.40
2023-04-06T07:12:11.416Z,2.69
2023-04-06T07:13:11.391Z,2.45
2023-04-06T07:14:11.456Z,2.44
2023-04-06T07:15:11.422Z,2.83
2023-04-06T07:16:11.429Z,2.67
2023-04-06T07:17:11.494Z,2.70
2023-04-06T07:18:11.452Z,2.81
2023-04-06T07:19:11.453Z,2.27
2023-04-06T07:20:11.440Z,2.83
2023-04-06T07:21:11.492Z,2.36
2023-04-06T07:22:11.529Z,2.60
2023-04-06T07:23:11.606Z,2.43
2023-04-06T07:24:11.759Z,2.39
2023-04-06T07:25:11.694Z,2.59
2023-04-06T07:26:11.760Z,2.24
2023-04-06T07:27:11.838Z,2.62
2023-04-06T07:28:11.851Z,3.03
2023-04-06T07:29:11.900Z,2.96
2023-04-06T07:30:11.965Z,2.43
2023-04-06T07:31:12.265Z,2.39
2023-04-06T07:32:12.120Z,2.65
2023-04-06T07:33:12.079Z,2.36
2023-04-06T07:34:12.130Z,2.81
2023-04-06T07:35:12.171Z,2.10
2023-04-06T07:36:12.224Z,2.57
2023-04-06T07:37:12.213Z,2.15
2023-04-06T07:38:12.265Z,2.61
2023-04-06T07:39:12.297Z,2.77
2023-04-06T07:40:12.336Z,2.43
2023-04-06T07:41:12.357Z,2.44
2023-04-06T07:42:12.365Z,2.61
2023-04-06T07:43:12.413Z,2.72
2023-04-06T07:44:12.424Z,2.42
2023-04-06T07:45:12.425Z,2.29
2023-04-06T07:46:12.480Z,2.35
2023-04-06T07:47:12.476Z,2.29
2023-04-06T07:48:12.495Z,3.05
2023-04-06T07:49:12.499Z,2.30
2023-04-06T07:50:12.519Z,2.29
2023-04-06T07:51:12.540Z,2.53
2023-04-06T07:52:12.556Z,2.63
2023-04-06T07:53:12.553Z,2.49
2023-04-06T07:54:12.584Z,2.47
2023-04-06T07:55:12.577Z,2.65
2023-04-06T07:56:12.580Z,2.00
2023-04-06T07:57:12.602Z,2.79
2023-04-06T07:58:12.599Z,2.22
2023-04-06T07:59:12.711Z,2.38
2023-04-06T08:00:12.639Z,2.49
2023-04-06T08:01:12.661Z,2.08
2023-04-06T08:02:12.715Z,2.57
2023-04-06T08:03:12.857Z,1.92
2023-04-06T08:04:12.969Z,2.70
2023-04-06T08:05:12.836Z,2.26
2023-04-06T08:06:12.825Z,2.62
2023-04-06T08:07:12.847Z,2.52
2023-04-06T08:08:12.858Z,2.33
2023-04-06T08:09:12.874Z,2.67
2023-04-06T08:10:12.853Z,2.33
2023-04-06T08:11:12.920Z,2.63
2023-04-06T08:12:13.031Z,2.43
2023-04-06T08:13:13.022Z,2.08
2023-04-06T08:14:13.036Z,2.03
2023-04-06T08:15:13.056Z,1.81
2023-04-06T08:16:13.086Z,2.29
2023-04-06T08:17:13.025Z,2.37
2023-04-06T08:18:13.042Z,2.11
2023-04-06T08:19:13.034Z,2.24
2023-04-06T08:20:13.060Z,2.49
2023-04-06T08:21:13.030Z,2.57
2023-04-06T08:22:13.044Z,2.63
2023-04-06T08:23:13.076Z,1.94
2023-04-06T08:24:13.085Z,2.14
2023-04-06T08:25:13.087Z,2.07
2023-04-06T08:26:13.082Z,2.17
2023-04-06T08:27:13.108Z,2.18
2023-04-06T08:28:13.169Z,2.79
2023-04-06T08:29:13.195Z,2.66
2023-04-06T08:30:13.200Z,2.10
2023-04-06T08:31:13.278Z,2.41
2023-04-06T08:32:13.235Z,2.57
2023-04-06T08:33:13.248Z,2.14
2023-04-06T08:34:14.337Z,2.04
2023-04-06T08:35:13.272Z,2.28
2023-04-06T08:36:13.293Z,2.20
2023-04-06T08:37:13.339Z,2.34
2023-04-06T08:38:13.297Z,2.01
2023-04-06T08:39:13.329Z,2.35
2023-04-06T08:40:13.355Z,2.07
2023-04-06T08:41:13.360Z,2.29
2023-04-06T08:42:13.386Z,2.35
2023-04-06T08:43:13.406Z,2.14
2023-04-06T08:44:13.392Z,2.09
2023-04-06T08:45:13.427Z,2.03
2023-04-06T08:46:13.463Z,2.55
2023-04-06T08:47:13.473Z,1.94
2023-04-06T08:48:13.488Z,2.12
2023-04-06T08:49:13.524Z,2.15
2023-04-06T08:50:13.528Z,1.88
2023-04-06T08:51:13.556Z,1.96
2023-04-06T08:52:13.580Z,1.88
2023-04-06T08:53:13.626Z,2.53
2023-04-06T08:54:13.625Z,2.16
2023-04-06T08:55:13.654Z,1.83
2023-04-06T08:56:13.668Z,2.43
2023-04-06T08:57:13.697Z,2.29
2023-04-06T08:58:17.282Z,2.14
2023-04-06T08:59:14.736Z,2.31
2023-04-06T09:00:13.718Z,2.34
2023-04-06T09:01:13.792Z,2.02
2023-04-06T09:02:13.892Z,1.99
2023-04-06T09:03:13.810Z,2.53
2023-04-06T09:04:14.192Z,2.27
2023-04-06T09:05:13.668Z,2.30
2023-04-06T09:06:13.661Z,2.15
2023-04-06T09:07:13.650Z,1.64
2023-04-06T09:08:13.650Z,2.13
2023-04-06T09:09:13.636Z,2.23
2023-04-06T09:10:13.661Z,2.12
2023-04-06T09:11:13.633Z,2.17
2023-04-06T09:12:13.672Z,2.21
2023-04-06T09:13:13.705Z,1.91
2023-04-06T09:14:13.758Z,2.09
2023-04-06T09:15:13.801Z,2.00
2023-04-06T09:16:13.846Z,2.22
2023-04-06T09:17:13.862Z,2.04
2023-04-06T09:18:13.913Z,2.02
2023-04-06T09:19:13.973Z,2.39
2023-04-06T09:20:14.001Z,2.02
2023-04-06T09:21:14.048Z,2.01
2023-04-06T09:22:14.082Z,2.28
2023-04-06T09:23:14.166Z,2.24
2023-04-06T09:24:14.156Z,1.83
2023-04-06T09:25:14.206Z,2.18
2023-04-06T09:26:14.228Z,1.71
2023-04-06T09:27:14.285Z,2.33
2023-04-06T09:28:14.343Z,2.07
2023-04-06T09:29:14.361Z,2.24
2023-04-06T09:30:14.417Z,2.17
2023-04-06T09:31:14.491Z,2.53
2023-04-06T09:32:14.489Z,2.34
2023-04-06T09:33:14.559Z,2.28
2023-04-06T09:34:14.620Z,3.12
2023-04-06T09:35:14.685Z,2.90
2023-04-06T09:36:14.719Z,2.98
2023-04-06T09:37:14.795Z,2.70
2023-04-06T09:38:14.877Z,2.65
2023-04-06T09:39:14.906Z,2.88
2023-04-06T09:40:14.965Z,2.70
2023-04-06T09:41:15.019Z,2.54
2023-04-06T09:42:15.075Z,2.60
2023-04-06T09:43:15.135Z,2.23
2023-04-06T09:44:15.208Z,2.65
2023-04-06T09:45:15.250Z,2.46
2023-04-06T09:46:15.330Z,2.42
2023-04-06T09:47:15.473Z,2.63
2023-04-06T09:48:15.512Z,1.98
2023-04-06T09:49:15.492Z,2.43
2023-04-06T09:50:15.553Z,2.87
2023-04-06T09:51:15.634Z,2.36
2023-04-06T09:52:15.692Z,2.40
2023-04-06T09:53:15.751Z,2.73
2023-04-06T09:54:15.796Z,2.20
2023-04-06T09:55:15.831Z,2.34
2023-04-06T09:56:15.886Z,2.11
2023-04-06T09:57:15.962Z,2.17
2023-04-06T09:58:16.001Z,2.13
2023-04-06T09:59:16.094Z,2.72
2023-04-06T10:00:16.130Z,2.47
2023-04-06T10:01:16.228Z,2.16
2023-04-06T10:02:16.229Z,2.29
2023-04-06T10:03:16.412Z,2.42
2023-04-06T10:04:16.421Z,1.91
2023-04-06T10:05:16.384Z,2.15
2023-04-06T10:06:16.455Z,2.44
2023-04-06T10:07:16.476Z,2.36
2023-04-06T10:08:16.594Z,1.82
2023-04-06T10:09:16.606Z,1.88
2023-04-06T10:10:16.634Z,2.10
2023-04-06T10:11:16.704Z,1.84
2023-04-06T10:12:16.745Z,1.88
2023-04-06T10:13:16.805Z,1.97
2023-04-06T10:14:16.857Z,2.10
2023-04-06T10:15:16.906Z,1.73
2023-04-06T10:16:17.015Z,2.03
2023-04-06T10:17:17.030Z,1.56
2023-04-06T10:18:17.076Z,2.53
2023-04-06T10:19:17.147Z,2.26
2023-04-06T10:20:17.332Z,2.15
2023-04-06T10:21:17.235Z,2.21
2023-04-06T10:22:17.314Z,1.94
2023-04-06T10:23:17.366Z,2.03
2023-04-06T10:24:17.425Z,2.16
2023-04-06T10:25:17.466Z,2.00
2023-04-06T10:26:17.548Z,2.07
2023-04-06T10:27:17.600Z,1.92
2023-04-06T10:28:17.650Z,1.90
2023-04-06T10:29:17.700Z,2.26
2023-04-06T10:30:17.811Z,2.04
2023-04-06T10:31:17.857Z,2.00
2023-04-06T10:32:18.121Z,1.81
2023-04-06T10:33:17.941Z,1.98
2023-04-06T10:34:18.003Z,1.87
2023-04-06T10:35:18.067Z,2.18
2023-04-06T10:36:18.176Z,1.97
2023-04-06T10:37:18.184Z,1.78
2023-04-06T10:38:18.261Z,1.97
2023-04-06T10:39:18.289Z,1.58
2023-04-06T10:40:18.345Z,2.24
2023-04-06T10:41:18.392Z,2.01
2023-04-06T10:42:18.472Z,1.91
2023-04-06T10:43:18.617Z,1.82
2023-04-06T10:44:18.564Z,2.03
2023-04-06T10:45:18.626Z,1.62
2023-04-06T10:46:18.694Z,1.85
2023-04-06T10:47:18.741Z,1.72
2023-04-06T10:48:18.819Z,1.69
2023-04-06T10:49:18.849Z,1.74
2023-04-06T10:50:18.925Z,1.33
2023-04-06T10:51:18.969Z,1.75
2023-04-06T10:52:19.014Z,1.69
2023-04-06T10:53:19.094Z,1.77
2023-04-06T10:54:19.146Z,1.67
2023-04-06T10:55:19.193Z,1.58
2023-04-06T10:56:19.250Z,1.73
2023-04-06T10:57:19.286Z,1.49
2023-04-06T10:58:19.336Z,1.63
2023-04-06T10:59:19.416Z,1.85
2023-04-06T11:00:19.372Z,1.55
2023-04-06T11:01:19.448Z,1.66
2023-04-06T11:02:19.439Z,1.64
2023-04-06T11:03:19.484Z,1.99
2023-04-06T11:04:19.618Z,1.41
2023-04-06T11:05:19.539Z,1.83
2023-04-06T11:06:19.577Z,1.43
2023-04-06T11:07:19.613Z,1.52
2023-04-06T11:08:19.630Z,1.56
2023-04-06T11:09:19.663Z,1.43
2023-04-06T11:10:21.005Z,1.48
2023-04-06T11:11:19.730Z,1.43
2023-04-06T11:12:19.755Z,1.58
2023-04-06T11:13:19.773Z,1.47
2023-04-06T11:14:19.782Z,1.87
2023-04-06T11:15:19.836Z,1.37
2023-04-06T11:16:19.894Z,1.85
2023-04-06T11:17:19.900Z,1.01
2023-04-06T11:18:19.924Z,1.28
2023-04-06T11:19:19.960Z,1.29
2023-04-06T11:20:19.971Z,1.38
2023-04-06T11:21:20.005Z,1.51
2023-04-06T11:22:19.951Z,1.55
2023-04-06T11:23:19.977Z,1.35
2023-04-06T11:24:19.987Z,2.08
2023-04-06T11:25:20.031Z,1.29
2023-04-06T11:26:19.977Z,1.59
2023-04-06T11:27:19.991Z,1.30
2023-04-06T11:28:20.045Z,1.59
2023-04-06T11:29:19.989Z,1.29
2023-04-06T11:30:20.036Z,1.42
2023-04-06T11:31:20.072Z,1.52
2023-04-06T11:32:20.047Z,2.00
2023-04-06T11:33:20.044Z,1.51
2023-04-06T11:34:20.043Z,1.42
2023-04-06T11:35:20.052Z,1.49
2023-04-06T11:36:20.053Z,1.63
2023-04-06T11:37:20.036Z,1.03
2023-04-06T11:38:20.034Z,1.45
2023-04-06T11:39:20.042Z,1.47
2023-04-06T11:40:20.026Z,1.05
2023-04-06T11:41:20.056Z,1.62
2023-04-06T11:42:20.037Z,1.20
2023-04-06T11:43:20.059Z,1.49
2023-04-06T11:44:20.049Z,1.10
2023-04-06T11:45:20.023Z,1.65
2023-04-06T11:46:20.079Z,1.11
2023-04-06T11:47:20.031Z,1.42
2023-04-06T11:48:20.046Z,1.41
2023-04-06T11:49:20.050Z,1.19
2023-04-06T11:50:20.007Z,1.22
2023-04-06T11:51:20.020Z,1.86
2023-04-06T11:52:20.016Z,1.26
2023-04-06T11:53:20.020Z,0.94
2023-04-06T11:54:20.016Z,0.95
2023-04-06T11:55:20.056Z,1.30
2023-04-06T11:56:20.005Z,1.13
2023-04-06T11:57:20.025Z,1.74
2023-04-06T11:58:20.023Z,1.30
2023-04-06T11:59:20.078Z,1.36
2023-04-06T12:00:20.032Z,1.42
2023-04-06T12:01:20.023Z,1.08
2023-04-06T12:02:20.068Z,1.63
2023-04-06T12:03:20.112Z,1.08
2023-04-06T12:04:20.101Z,1.88
2023-04-06T12:05:20.060Z,1.31
2023-04-06T12:06:20.066Z,0.85
2023-04-06T12:07:20.071Z,0.93
2023-04-06T12:08:20.054Z,1.21
2023-04-06T12:09:20.055Z,1.35
2023-04-06T12:10:20.092Z,1.07
2023-04-06T12:11:20.067Z,0.87
2023-04-06T12:12:20.092Z,1.12
2023-04-06T12:13:20.081Z,1.36
2023-04-06T12:14:20.125Z,1.02
2023-04-06T12:15:20.144Z,1.03
2023-04-06T12:16:20.233Z,1.09
2023-04-06T12:17:20.164Z,1.06
2023-04-06T12:18:20.140Z,1.05
2023-04-06T12:19:20.163Z,1.49
2023-04-06T12:20:26.556Z,1.19
2023-04-06T12:21:21.149Z,1.96
2023-04-06T12:22:20.136Z,1.06
2023-04-06T12:23:20.132Z,1.12
2023-04-06T12:24:20.120Z,1.09
2023-04-06T12:25:20.114Z,1.12
2023-04-06T12:26:20.110Z,1.15
2023-04-06T12:27:20.103Z,1.13
2023-04-06T12:28:20.114Z,1.03
2023-04-06T12:29:20.090Z,1.15
2023-04-06T12:30:20.095Z,1.09
2023-04-06T12:31:20.125Z,0.90
2023-04-06T12:32:20.061Z,1.33
2023-04-06T12:33:20.209Z,1.15
2023-04-06T12:34:20.063Z,0.81
2023-04-06T12:35:20.069Z,1.10
2023-04-06T12:36:20.192Z,1.10
2023-04-06T12:37:20.030Z,1.08
2023-04-06T12:38:20.026Z,0.80
2023-04-06T12:39:21.748Z,1.08
2023-04-06T12:40:20.032Z,1.13
2023-04-06T12:41:20.024Z,1.47
2023-04-06T12:42:20.017Z,1.19
2023-04-06T12:43:19.996Z,0.93
2023-04-06T12:44:20.001Z,1.54
2023-04-06T12:45:20.030Z,1.19
2023-04-06T12:46:20.094Z,1.07
2023-04-06T12:47:20.053Z,1.29
2023-04-06T12:48:20.077Z,1.16
2023-04-06T12:49:20.101Z,0.70
2023-04-06T12:50:20.151Z,1.07
2023-04-06T12:51:20.183Z,1.13
2023-04-06T12:52:20.213Z,1.41
2023-04-06T12:53:20.235Z,1.13
2023-04-06T12:54:20.291Z,0.94
2023-04-06T12:55:20.314Z,1.24
2023-04-06T12:56:20.309Z,1.24
2023-04-06T12:57:20.343Z,1.02
2023-04-06T12:58:20.371Z,1.13
2023-04-06T12:59:20.464Z,0.89
2023-04-06T13:00:20.533Z,1.10
2023-04-06T13:01:20.502Z,0.97
2023-04-06T13:02:20.538Z,0.94
2023-04-06T13:03:20.534Z,0.87
2023-04-06T13:04:20.530Z,1.02
2023-04-06T13:05:20.559Z,1.27
2023-04-06T13:06:20.577Z,1.07
2023-04-06T13:07:20.630Z,1.23
2023-04-06T13:08:20.660Z,0.92
2023-04-06T13:09:20.699Z,0.96
2023-04-06T13:10:20.718Z,0.94
2023-04-06T13:11:20.749Z,1.04
2023-04-06T13:12:20.792Z,1.00
2023-04-06T13:13:20.836Z,1.02
2023-04-06T13:14:20.867Z,0.95
2023-04-06T13:15:20.890Z,1.19
2023-04-06T13:16:20.990Z,1.42
2023-04-06T13:17:20.966Z,1.02
2023-04-06T13:18:20.976Z,1.08